WetterOnline ( https://www.wetteronline.de )

Wetter aktuell Rothaargebirge (in 800m)

Aktuelles Wetter: Kahler Asten (841m)

6-stündlich | Neueste Meldungen
Ortszeit Temperatur Wetter
Do, 25.04. 20:00 15.6° C bedeckt
Do, 25.04. 14:00 14.1° C bewölkt
Do, 25.04. 8:00 5.8° C leicht bewölkt
Do, 25.04. 2:00 4.1° C leicht bewölkt
Mi, 24.04. 20:00 16.9° C bewölkt
Mi, 24.04. 14:00 17.8° C leicht bewölkt
Mi, 24.04. 8:00 10.3° C wolkig
Mi, 24.04. 2:00 11.6° C bedeckt
Ortszeit Temperatur Wetter
Fr, 26.04. 1:30 7.2° C wolkenlos
Fr, 26.04. 1:20 7.2° C wolkenlos
Fr, 26.04. 1:10 7.5° C leicht bewölkt
Fr, 26.04. 1:00 7.9° C bewölkt
Fr, 26.04. 0:50 7.9° C bewölkt
Fr, 26.04. 0:40 8.1° C bewölkt
Fr, 26.04. 0:30 8.3° C bedeckt
Fr, 26.04. 0:00 8.6° C bewölkt
Do, 25.04. 23:30 8.7° C wolkig
Do, 25.04. 23:00 9.4° C bedeckt
Do, 25.04. 22:30 10.3° C bedeckt
Ortszeit Relative Feuchte Sichtweite
Do, 25.04. 20:00 44% 70 km
Do, 25.04. 14:00 45% 55 km
Do, 25.04. 8:00 84% 27 km
Do, 25.04. 2:00 93% 70 km
Mi, 24.04. 20:00 47% 70 km
Mi, 24.04. 14:00 47% 30 km
Mi, 24.04. 8:00 71% 30 km
Mi, 24.04. 2:00 67% 26 km
Ortszeit Relative Feuchte Sichtweite
Fr, 26.04. 1:30 78% 70 km
Fr, 26.04. 1:20 78% -
Fr, 26.04. 1:10 77% -
Fr, 26.04. 1:00 75% 70 km
Fr, 26.04. 0:50 75% -
Fr, 26.04. 0:40 74% -
Fr, 26.04. 0:30 73% 70 km
Fr, 26.04. 0:00 74% 70 km
Do, 25.04. 23:30 74% 70 km
Do, 25.04. 23:00 70% 70 km
Do, 25.04. 22:30 65% 70 km
Ortszeit Niederschlagsmenge Niederschlagsart
Do, 25.04. 20:00 0.0 l/m2 in 12 Std. -
Do, 25.04. 14:00 0.0 l/m2 in 6 Std. -
Do, 25.04. 8:00 1 l/m2 in 12 Std. -
Do, 25.04. 2:00 1 l/m2 in 6 Std. Regen
Mi, 24.04. 20:00 0.0 l/m2 in 12 Std. -
Mi, 24.04. 14:00 0.0 l/m2 in 6 Std. -
Mi, 24.04. 8:00 0.0 l/m2 in 12 Std. -
Mi, 24.04. 2:00 0.0 l/m2 in 6 Std. -
Ortszeit Niederschlagsmenge Niederschlagsart
Fr, 26.04. 1:30 0.0 l/m2 in 1 Std. -
Fr, 26.04. 1:20 keine Meldung -
Fr, 26.04. 1:10 keine Meldung -
Fr, 26.04. 1:00 0.0 l/m2 in 1 Std. -
Fr, 26.04. 0:50 keine Meldung -
Fr, 26.04. 0:40 keine Meldung -
Fr, 26.04. 0:30 0.0 l/m2 in 1 Std. -
Fr, 26.04. 0:00 0.0 l/m2 in 1 Std. -
Do, 25.04. 23:30 0.0 l/m2 in 1 Std. -
Do, 25.04. 23:00 0.0 l/m2 in 1 Std. -
Do, 25.04. 22:30 0.0 l/m2 in 1 Std. -
Ortszeit Stärke Spitze Richtung
km/h Bft. km/h Grad Sektor
Do, 25.04. 20:00 24 4 50 120° SO
Do, 25.04. 14:00 31 5 61 140° SO
Do, 25.04. 8:00 25 4 36 170° S
Do, 25.04. 2:00 14 3 79 160° S
Mi, 24.04. 20:00 25 4 47 150° SO
Mi, 24.04. 14:00 18 3 32 210° SW
Mi, 24.04. 8:00 19 3 37 140° SO
Mi, 24.04. 2:00 25 4 40 150° SO
Ortszeit Stärke Spitze Richtung
km/h Bft. km/h Grad Sektor
Fr, 26.04. 1:30 18 3 29 310° NW
Fr, 26.04. 1:20 18 3 - 310° NW
Fr, 26.04. 1:10 22 4 - 280° W
Fr, 26.04. 1:00 22 4 32 300° NW
Fr, 26.04. 0:50 22 4 - 300° NW
Fr, 26.04. 0:40 22 4 - 290° W
Fr, 26.04. 0:30 24 4 33 290° W
Fr, 26.04. 0:00 25 4 40 290° W
Do, 25.04. 23:30 25 4 40 280° W
Do, 25.04. 23:00 29 5 43 280° W
Do, 25.04. 22:30 31 5 44 280° W
Ortszeit Untergrenze Bedeckung Gattung
total tief tief mittel hoch
Do, 25.04. 20:00 3600 m 8/8 8/8 - - -
Do, 25.04. 14:00 2400 m 7/8 7/8 - - -
Do, 25.04. 8:00 7200 m 3/8 0/8 - - -
Do, 25.04. 2:00 60 m 2/8 2/8 - - -
Mi, 24.04. 20:00 5700 m 8/8 4/8 - - -
Mi, 24.04. 14:00 1500 m 2/8 2/8 - - -
Mi, 24.04. 8:00 2400 m 8/8 1/8 - - -
Mi, 24.04. 2:00 2400 m 8/8 8/8 - - -
Ortszeit Bedeckungsgrad in Achtel und Wolkenuntergrenze
Fr, 26.04. 1:30 keine Wolken
Fr, 26.04. 1:20 keine Wolken
Fr, 26.04. 1:10 2(5100m)
Fr, 26.04. 1:00 1(3300m) 7(5100m)
Fr, 26.04. 0:50 1(3300m) 2(4200m) 7(5100m)
Fr, 26.04. 0:40 3(3300m) 6(4500m) 7(5100m)
Fr, 26.04. 0:30 7(3300m) 8(4500m) 8(5100m)
Fr, 26.04. 0:00 7(3600m) 7(5100m)
Do, 25.04. 23:30 6(4500m) 5(4500m) 6(5100m)
Do, 25.04. 23:00 6(3000m) 7(3900m) 8(4500m)
Do, 25.04. 22:30 7(3000m) 8(4500m) 8(4800m)
Ortszeit Stationsdruck (hPa) Tendenz (hPa in 3 Std.)
Do, 25.04. 20:00 909 - 1,1
Do, 25.04. 14:00 912 + 0,1
Do, 25.04. 8:00 911 + 1,1
Do, 25.04. 2:00 909 - 0,2
Mi, 24.04. 20:00 905 - 0,8
Mi, 24.04. 14:00 906 + 0,5
Mi, 24.04. 8:00 904 + 0,8
Mi, 24.04. 2:00 903 + 0,5
Ortszeit Stationsdruck (hPa) Tendenz (hPa in 3 Std.)
Fr, 26.04. 1:30 911 + 0,1
Fr, 26.04. 1:20 911 keine Meldung
Fr, 26.04. 1:10 911 keine Meldung
Fr, 26.04. 1:00 911 0,0
Fr, 26.04. 0:50 911 keine Meldung
Fr, 26.04. 0:40 911 keine Meldung
Fr, 26.04. 0:30 911 + 0,8
Fr, 26.04. 0:00 911 + 1,4
Do, 25.04. 23:30 911 + 1,4
Do, 25.04. 23:00 911 + 1,4
Do, 25.04. 22:30 911 + 1,3
Ortszeit Schneehöhe (cm)
Do, 25.04. 20:00 0
Do, 25.04. 14:00 0
Do, 25.04. 8:00 0
Do, 25.04. 2:00 0
Mi, 24.04. 20:00 0
Mi, 24.04. 14:00 0
Mi, 24.04. 8:00 0
Mi, 24.04. 2:00 0
Ortszeit Schneehöhe (cm)
Fr, 26.04. 1:30 0
Fr, 26.04. 1:20 0
Fr, 26.04. 1:10 -
Fr, 26.04. 1:00 0
Fr, 26.04. 0:50 0
Fr, 26.04. 0:40 0
Fr, 26.04. 0:30 0
Fr, 26.04. 0:00 0
Do, 25.04. 23:30 0
Do, 25.04. 23:00 0
Do, 25.04. 22:30 0
Link zu dieser Seite / Seite empfehlen

Das Wetter in ...